sensor_id;sensor_type;location;lat;lon;timestamp;pressure;altitude;pressure_sealevel;temperature;humidity
25420;BME280;13354;48.174;11.566;2023-11-22T00:02:17;95769.56;;;7.41;100.00
25420;BME280;13354;48.174;11.566;2023-11-22T00:04:43;95772.69;;;7.44;100.00
25420;BME280;13354;48.174;11.566;2023-11-22T00:07:08;95773.03;;;7.41;100.00
25420;BME280;13354;48.174;11.566;2023-11-22T00:09:33;95774.66;;;7.42;100.00
25420;BME280;13354;48.174;11.566;2023-11-22T00:11:59;95779.78;;;7.44;100.00
25420;BME280;13354;48.174;11.566;2023-11-22T00:14:25;95785.38;;;7.41;100.00
25420;BME280;13354;48.174;11.566;2023-11-22T00:16:51;95787.16;;;7.48;100.00
25420;BME280;13354;48.174;11.566;2023-11-22T00:19:16;95783.72;;;7.40;100.00
25420;BME280;13354;48.174;11.566;2023-11-22T00:21:43;95782.19;;;7.54;100.00
25420;BME280;13354;48.174;11.566;2023-11-22T00:24:09;95782.03;;;7.47;100.00
25420;BME280;13354;48.174;11.566;2023-11-22T00:26:34;95783.88;;;7.38;100.00
25420;BME280;13354;48.174;11.566;2023-11-22T00:29:00;95784.22;;;7.35;100.00
25420;BME280;13354;48.174;11.566;2023-11-22T00:31:25;95784.66;;;7.47;100.00
25420;BME280;13354;48.174;11.566;2023-11-22T00:33:50;95786.81;;;7.43;100.00
25420;BME280;13354;48.174;11.566;2023-11-22T00:36:16;95785.38;;;7.41;100.00
25420;BME280;13354;48.174;11.566;2023-11-22T00:38:41;95785.75;;;7.30;100.00
25420;BME280;13354;48.174;11.566;2023-11-22T00:41:07;95778.63;;;7.38;100.00
25420;BME280;13354;48.174;11.566;2023-11-22T00:43:33;95783.59;;;7.33;100.00
25420;BME280;13354;48.174;11.566;2023-11-22T00:45:58;95789.00;;;7.32;100.00
25420;BME280;13354;48.174;11.566;2023-11-22T00:48:23;95795.44;;;7.29;100.00
25420;BME280;13354;48.174;11.566;2023-11-22T00:50:49;95795.78;;;7.26;100.00
25420;BME280;13354;48.174;11.566;2023-11-22T00:53:14;95789.34;;;7.29;100.00
25420;BME280;13354;48.174;11.566;2023-11-22T00:55:40;95797.09;;;7.30;100.00
25420;BME280;13354;48.174;11.566;2023-11-22T00:58:05;95794.28;;;7.32;100.00
25420;BME280;13354;48.174;11.566;2023-11-22T01:00:32;95798.09;;;7.29;100.00
25420;BME280;13354;48.174;11.566;2023-11-22T01:02:58;95799.38;;;7.33;100.00
25420;BME280;13354;48.174;11.566;2023-11-22T01:05:24;95796.75;;;7.33;100.00
25420;BME280;13354;48.174;11.566;2023-11-22T01:07:49;95804.97;;;7.38;100.00
25420;BME280;13354;48.174;11.566;2023-11-22T01:10:15;95809.72;;;7.43;100.00
25420;BME280;13354;48.174;11.566;2023-11-22T01:12:40;95810.75;;;7.34;100.00
25420;BME280;13354;48.174;11.566;2023-11-22T01:15:07;95806.94;;;7.36;100.00
25420;BME280;13354;48.174;11.566;2023-11-22T01:17:33;95796.41;;;7.36;100.00
25420;BME280;13354;48.174;11.566;2023-11-22T01:19:59;95799.19;;;7.43;100.00
25420;BME280;13354;48.174;11.566;2023-11-22T01:22:25;95803.97;;;7.39;100.00
25420;BME280;13354;48.174;11.566;2023-11-22T01:24:50;95809.22;;;7.39;100.00
25420;BME280;13354;48.174;11.566;2023-11-22T01:27:15;95812.84;;;7.46;100.00
25420;BME280;13354;48.174;11.566;2023-11-22T01:29:41;95818.94;;;7.39;100.00
25420;BME280;13354;48.174;11.566;2023-11-22T01:32:07;95812.03;;;7.38;100.00
25420;BME280;13354;48.174;11.566;2023-11-22T01:34:36;95816.16;;;7.40;100.00
25420;BME280;13354;48.174;11.566;2023-11-22T01:37:02;95817.31;;;7.38;100.00
25420;BME280;13354;48.174;11.566;2023-11-22T01:39:28;95825.22;;;7.38;100.00
25420;BME280;13354;48.174;11.566;2023-11-22T01:41:53;95818.94;;;7.39;100.00
25420;BME280;13354;48.174;11.566;2023-11-22T01:44:19;95828.47;;;7.40;100.00
25420;BME280;13354;48.174;11.566;2023-11-22T01:46:45;95831.31;;;7.38;100.00
25420;BME280;13354;48.174;11.566;2023-11-22T01:49:11;95837.56;;;7.37;100.00
25420;BME280;13354;48.174;11.566;2023-11-22T01:51:37;95834.94;;;7.37;100.00
25420;BME280;13354;48.174;11.566;2023-11-22T01:54:04;95842.00;;;7.37;100.00
25420;BME280;13354;48.174;11.566;2023-11-22T01:56:30;95840.22;;;7.29;100.00
25420;BME280;13354;48.174;11.566;2023-11-22T01:58:57;95853.53;;;7.44;100.00
25420;BME280;13354;48.174;11.566;2023-11-22T02:01:26;95841.78;;;7.63;99.42
25420;BME280;13354;48.174;11.566;2023-11-22T02:03:51;95852.50;;;7.53;96.25
25420;BME280;13354;48.174;11.566;2023-11-22T02:06:19;95853.03;;;7.40;92.63
25420;BME280;13354;48.174;11.566;2023-11-22T02:08:48;95858.47;;;7.31;89.22
25420;BME280;13354;48.174;11.566;2023-11-22T02:11:17;95861.78;;;7.08;86.95
25420;BME280;13354;48.174;11.566;2023-11-22T02:13:47;95872.66;;;7.05;85.51
25420;BME280;13354;48.174;11.566;2023-11-22T02:16:13;95872.66;;;6.89;85.55
25420;BME280;13354;48.174;11.566;2023-11-22T02:18:38;95874.94;;;6.84;85.41
25420;BME280;13354;48.174;11.566;2023-11-22T02:21:04;95876.91;;;6.65;84.46
25420;BME280;13354;48.174;11.566;2023-11-22T02:23:30;95891.69;;;6.50;83.89
25420;BME280;13354;48.174;11.566;2023-11-22T02:25:56;95896.09;;;6.41;82.98
25420;BME280;13354;48.174;11.566;2023-11-22T02:28:21;95898.38;;;6.36;82.67
25420;BME280;13354;48.174;11.566;2023-11-22T02:30:47;95901.47;;;6.23;83.00
25420;BME280;13354;48.174;11.566;2023-11-22T02:33:12;95894.22;;;6.17;83.03
25420;BME280;13354;48.174;11.566;2023-11-22T02:35:38;95900.06;;;6.03;83.33
25420;BME280;13354;48.174;11.566;2023-11-22T02:38:04;95905.88;;;5.89;83.69
25420;BME280;13354;48.174;11.566;2023-11-22T02:40:30;95904.56;;;5.85;83.60
25420;BME280;13354;48.174;11.566;2023-11-22T02:42:55;95909.81;;;5.85;83.93
25420;BME280;13354;48.174;11.566;2023-11-22T02:45:30;95911.16;;;5.89;84.23
25420;BME280;13354;48.174;11.566;2023-11-22T02:47:55;95922.72;;;5.70;84.05
25420;BME280;13354;48.174;11.566;2023-11-22T02:50:21;95920.91;;;5.70;84.53
25420;BME280;13354;48.174;11.566;2023-11-22T02:52:46;95925.81;;;5.65;84.38
25420;BME280;13354;48.174;11.566;2023-11-22T02:55:12;95918.41;;;5.61;84.95
25420;BME280;13354;48.174;11.566;2023-11-22T02:57:38;95918.53;;;5.59;83.99
25420;BME280;13354;48.174;11.566;2023-11-22T03:00:06;95917.44;;;5.70;83.41
25420;BME280;13354;48.174;11.566;2023-11-22T03:02:33;95926.84;;;5.72;82.82
25420;BME280;13354;48.174;11.566;2023-11-22T03:04:58;95926.94;;;5.63;81.99
25420;BME280;13354;48.174;11.566;2023-11-22T03:07:25;95931.78;;;5.49;81.18
25420;BME280;13354;48.174;11.566;2023-11-22T03:09:50;95929.00;;;5.51;81.79
25420;BME280;13354;48.174;11.566;2023-11-22T03:12:16;95928.00;;;5.52;82.32
25420;BME280;13354;48.174;11.566;2023-11-22T03:14:43;95935.31;;;5.40;82.21
25420;BME280;13354;48.174;11.566;2023-11-22T03:17:08;95930.97;;;5.49;82.63
25420;BME280;13354;48.174;11.566;2023-11-22T03:19:34;95940.75;;;5.39;82.40
25420;BME280;13354;48.174;11.566;2023-11-22T03:22:00;95947.53;;;5.23;82.60
25420;BME280;13354;48.174;11.566;2023-11-22T03:24:28;95947.72;;;5.30;83.21
25420;BME280;13354;48.174;11.566;2023-11-22T03:26:54;95948.34;;;5.24;83.31
25420;BME280;13354;48.174;11.566;2023-11-22T03:29:21;95944.31;;;4.94;83.49
25420;BME280;13354;48.174;11.566;2023-11-22T03:31:46;95948.72;;;4.93;83.47
25420;BME280;13354;48.174;11.566;2023-11-22T03:34:13;95947.25;;;4.91;84.26
25420;BME280;13354;48.174;11.566;2023-11-22T03:36:40;95948.19;;;4.90;83.87
25420;BME280;13354;48.174;11.566;2023-11-22T03:39:05;95960.28;;;4.82;84.10
25420;BME280;13354;48.174;11.566;2023-11-22T03:41:30;95959.91;;;4.77;84.59
25420;BME280;13354;48.174;11.566;2023-11-22T03:43:56;95962.81;;;4.74;85.64
25420;BME280;13354;48.174;11.566;2023-11-22T03:46:21;95970.69;;;4.74;86.45
25420;BME280;13354;48.174;11.566;2023-11-22T03:48:46;95977.72;;;4.74;86.41
25420;BME280;13354;48.174;11.566;2023-11-22T03:51:15;95976.75;;;4.75;86.36
25420;BME280;13354;48.174;11.566;2023-11-22T03:53:41;95976.63;;;4.76;86.58
25420;BME280;13354;48.174;11.566;2023-11-22T03:56:06;95976.44;;;4.78;87.09
25420;BME280;13354;48.174;11.566;2023-11-22T03:58:32;95990.72;;;4.75;87.44
25420;BME280;13354;48.174;11.566;2023-11-22T04:00:57;95992.81;;;4.72;87.74
25420;BME280;13354;48.174;11.566;2023-11-22T04:03:23;96003.66;;;4.77;87.68
25420;BME280;13354;48.174;11.566;2023-11-22T04:05:49;96002.84;;;4.76;87.71
25420;BME280;13354;48.174;11.566;2023-11-22T04:08:14;96007.94;;;4.78;87.84
25420;BME280;13354;48.174;11.566;2023-11-22T04:10:39;96008.09;;;4.76;87.90
25420;BME280;13354;48.174;11.566;2023-11-22T04:13:05;96003.66;;;4.77;87.82
25420;BME280;13354;48.174;11.566;2023-11-22T04:15:30;96006.44;;;4.75;87.65
25420;BME280;13354;48.174;11.566;2023-11-22T04:17:57;96007.63;;;4.81;87.79
25420;BME280;13354;48.174;11.566;2023-11-22T04:20:22;96008.47;;;4.81;87.45
25420;BME280;13354;48.174;11.566;2023-11-22T04:22:48;96014.69;;;4.80;86.82
25420;BME280;13354;48.174;11.566;2023-11-22T04:25:13;96013.41;;;4.84;86.82
25420;BME280;13354;48.174;11.566;2023-11-22T04:27:39;96024.00;;;4.93;86.83
25420;BME280;13354;48.174;11.566;2023-11-22T04:30:09;96015.28;;;4.92;86.19
25420;BME280;13354;48.174;11.566;2023-11-22T04:32:40;96020.47;;;4.84;85.24
25420;BME280;13354;48.174;11.566;2023-11-22T04:35:07;96028.88;;;4.88;84.99
25420;BME280;13354;48.174;11.566;2023-11-22T04:37:33;96030.81;;;5.03;84.38
25420;BME280;13354;48.174;11.566;2023-11-22T04:39:59;96032.16;;;4.90;82.67
25420;BME280;13354;48.174;11.566;2023-11-22T04:42:24;96032.47;;;4.87;82.00
25420;BME280;13354;48.174;11.566;2023-11-22T04:44:53;96036.38;;;4.82;83.31
25420;BME280;13354;48.174;11.566;2023-11-22T04:47:19;96046.25;;;4.89;83.91
25420;BME280;13354;48.174;11.566;2023-11-22T04:49:44;96045.38;;;4.98;82.64
25420;BME280;13354;48.174;11.566;2023-11-22T04:52:09;96041.16;;;4.87;82.08
25420;BME280;13354;48.174;11.566;2023-11-22T04:54:35;96048.59;;;4.92;82.62
25420;BME280;13354;48.174;11.566;2023-11-22T04:57:01;96052.09;;;4.82;82.84
25420;BME280;13354;48.174;11.566;2023-11-22T04:59:27;96061.41;;;4.95;83.08
25420;BME280;13354;48.174;11.566;2023-11-22T05:01:52;96063.44;;;5.01;81.96
25420;BME280;13354;48.174;11.566;2023-11-22T05:04:18;96069.03;;;4.88;82.13
25420;BME280;13354;48.174;11.566;2023-11-22T05:06:44;96068.38;;;4.86;82.73
25420;BME280;13354;48.174;11.566;2023-11-22T05:09:11;96068.66;;;4.83;82.50
25420;BME280;13354;48.174;11.566;2023-11-22T05:11:38;96068.66;;;4.83;82.58
25420;BME280;13354;48.174;11.566;2023-11-22T05:14:06;96076.00;;;4.79;82.88
25420;BME280;13354;48.174;11.566;2023-11-22T05:16:32;96075.31;;;4.77;83.33
25420;BME280;13354;48.174;11.566;2023-11-22T05:18:59;96066.63;;;4.77;83.69
25420;BME280;13354;48.174;11.566;2023-11-22T05:21:24;96075.72;;;4.82;84.16
25420;BME280;13354;48.174;11.566;2023-11-22T05:23:49;96081.34;;;4.88;83.52
25420;BME280;13354;48.174;11.566;2023-11-22T05:26:14;96075.94;;;4.89;82.95
25420;BME280;13354;48.174;11.566;2023-11-22T05:28:40;96085.69;;;4.97;82.52
25420;BME280;13354;48.174;11.566;2023-11-22T05:31:05;96086.59;;;4.88;81.98
25420;BME280;13354;48.174;11.566;2023-11-22T05:33:31;96095.97;;;4.90;81.15
25420;BME280;13354;48.174;11.566;2023-11-22T05:35:57;96107.66;;;4.96;80.46
25420;BME280;13354;48.174;11.566;2023-11-22T05:38:23;96106.16;;;4.93;79.65
25420;BME280;13354;48.174;11.566;2023-11-22T05:40:48;96102.84;;;4.91;79.97
25420;BME280;13354;48.174;11.566;2023-11-22T05:43:14;96118.34;;;4.84;80.43
25420;BME280;13354;48.174;11.566;2023-11-22T05:45:39;96121.16;;;4.73;81.14
25420;BME280;13354;48.174;11.566;2023-11-22T05:48:05;96116.84;;;4.82;80.22
25420;BME280;13354;48.174;11.566;2023-11-22T05:50:30;96130.75;;;4.92;80.41
25420;BME280;13354;48.174;11.566;2023-11-22T05:52:56;96133.16;;;5.03;80.25
25420;BME280;13354;48.174;11.566;2023-11-22T05:55:21;96136.44;;;4.88;79.91
25420;BME280;13354;48.174;11.566;2023-11-22T05:57:47;96140.03;;;4.87;80.53
25420;BME280;13354;48.174;11.566;2023-11-22T06:00:13;96148.63;;;4.79;80.63
25420;BME280;13354;48.174;11.566;2023-11-22T06:02:41;96149.56;;;4.78;80.67
25420;BME280;13354;48.174;11.566;2023-11-22T06:05:07;96148.09;;;4.75;80.90
25420;BME280;13354;48.174;11.566;2023-11-22T06:07:33;96156.09;;;4.74;80.99
25420;BME280;13354;48.174;11.566;2023-11-22T06:09:59;96144.50;;;4.67;80.35
25420;BME280;13354;48.174;11.566;2023-11-22T06:12:26;96143.97;;;4.63;80.80
25420;BME280;13354;48.174;11.566;2023-11-22T06:14:51;96151.72;;;4.65;81.20
25420;BME280;13354;48.174;11.566;2023-11-22T06:17:17;96155.06;;;4.57;81.84
25420;BME280;13354;48.174;11.566;2023-11-22T06:19:43;96162.59;;;4.70;82.11
25420;BME280;13354;48.174;11.566;2023-11-22T06:22:08;96162.44;;;4.71;81.86
25420;BME280;13354;48.174;11.566;2023-11-22T06:24:34;96168.94;;;4.67;82.03
25420;BME280;13354;48.174;11.566;2023-11-22T06:27:01;96169.25;;;4.64;81.89
25420;BME280;13354;48.174;11.566;2023-11-22T06:29:27;96182.66;;;4.61;82.09
25420;BME280;13354;48.174;11.566;2023-11-22T06:31:54;96170.63;;;4.58;82.33
25420;BME280;13354;48.174;11.566;2023-11-22T06:34:19;96170.84;;;4.75;82.26
25420;BME280;13354;48.174;11.566;2023-11-22T06:36:45;96176.63;;;4.78;82.33
25420;BME280;13354;48.174;11.566;2023-11-22T06:39:13;96183.72;;;4.68;82.02
25420;BME280;13354;48.174;11.566;2023-11-22T06:41:42;96180.50;;;4.74;81.63
25420;BME280;13354;48.174;11.566;2023-11-22T06:44:07;96185.38;;;4.69;81.71
25420;BME280;13354;48.174;11.566;2023-11-22T06:46:32;96184.81;;;4.75;82.21
25420;BME280;13354;48.174;11.566;2023-11-22T06:48:58;96184.66;;;4.77;82.01
25420;BME280;13354;48.174;11.566;2023-11-22T06:51:24;96194.75;;;4.72;81.70
25420;BME280;13354;48.174;11.566;2023-11-22T06:53:49;96205.53;;;4.69;81.94
25420;BME280;13354;48.174;11.566;2023-11-22T06:56:15;96205.22;;;4.81;81.91
25420;BME280;13354;48.174;11.566;2023-11-22T06:58:40;96219.91;;;4.65;81.74
25420;BME280;13354;48.174;11.566;2023-11-22T07:01:06;96226.63;;;4.67;81.37
25420;BME280;13354;48.174;11.566;2023-11-22T07:03:32;96229.56;;;4.64;81.59
25420;BME280;13354;48.174;11.566;2023-11-22T07:05:58;96222.09;;;4.59;81.60
25420;BME280;13354;48.174;11.566;2023-11-22T07:08:24;96215.06;;;4.70;81.30
25420;BME280;13354;48.174;11.566;2023-11-22T07:10:50;96226.53;;;4.59;82.17
25420;BME280;13354;48.174;11.566;2023-11-22T07:13:17;96227.34;;;4.69;81.77
25420;BME280;13354;48.174;11.566;2023-11-22T07:15:43;96225.25;;;4.82;81.26
25420;BME280;13354;48.174;11.566;2023-11-22T07:18:09;96233.13;;;4.73;81.14
25420;BME280;13354;48.174;11.566;2023-11-22T07:20:35;96236.19;;;4.68;81.09
25420;BME280;13354;48.174;11.566;2023-11-22T07:23:00;96245.72;;;4.59;81.78
25420;BME280;13354;48.174;11.566;2023-11-22T07:25:27;96249.59;;;4.55;80.93
25420;BME280;13354;48.174;11.566;2023-11-22T07:27:54;96255.41;;;4.49;80.29
25420;BME280;13354;48.174;11.566;2023-11-22T07:30:20;96254.00;;;4.45;81.12
25420;BME280;13354;48.174;11.566;2023-11-22T07:32:48;96255.25;;;4.41;81.44
25420;BME280;13354;48.174;11.566;2023-11-22T07:35:14;96263.69;;;4.35;82.26
25420;BME280;13354;48.174;11.566;2023-11-22T07:37:41;96280.09;;;4.47;84.17
25420;BME280;13354;48.174;11.566;2023-11-22T07:40:09;96281.19;;;4.44;83.15
25420;BME280;13354;48.174;11.566;2023-11-22T07:42:38;96289.22;;;4.43;82.88
25420;BME280;13354;48.174;11.566;2023-11-22T07:45:04;96292.38;;;4.56;83.65
25420;BME280;13354;48.174;11.566;2023-11-22T07:47:29;96298.47;;;4.47;83.54
25420;BME280;13354;48.174;11.566;2023-11-22T07:49:55;96299.28;;;4.47;82.39
25420;BME280;13354;48.174;11.566;2023-11-22T07:52:21;96303.28;;;4.51;81.77
25420;BME280;13354;48.174;11.566;2023-11-22T07:54:47;96304.69;;;4.46;81.16
25420;BME280;13354;48.174;11.566;2023-11-22T07:57:13;96299.28;;;4.47;81.03
25420;BME280;13354;48.174;11.566;2023-11-22T07:59:38;96296.25;;;4.42;80.88
25420;BME280;13354;48.174;11.566;2023-11-22T08:02:05;96293.09;;;4.39;81.62
25420;BME280;13354;48.174;11.566;2023-11-22T08:04:36;96313.34;;;4.36;81.98
25420;BME280;13354;48.174;11.566;2023-11-22T08:07:02;96310.88;;;4.35;81.30
25420;BME280;13354;48.174;11.566;2023-11-22T08:09:28;96321.06;;;4.38;81.32
25420;BME280;13354;48.174;11.566;2023-11-22T08:12:00;96330.31;;;4.32;81.18
25420;BME280;13354;48.174;11.566;2023-11-22T08:14:28;96333.22;;;4.39;81.83
25420;BME280;13354;48.174;11.566;2023-11-22T08:16:54;96333.38;;;4.47;82.04
25420;BME280;13354;48.174;11.566;2023-11-22T08:19:19;96342.31;;;4.45;82.52
25420;BME280;13354;48.174;11.566;2023-11-22T08:21:44;96343.56;;;4.70;88.13
25420;BME280;13354;48.174;11.566;2023-11-22T08:24:10;96353.25;;;4.79;87.83
25420;BME280;13354;48.174;11.566;2023-11-22T08:26:38;96345.34;;;4.89;89.08
25420;BME280;13354;48.174;11.566;2023-11-22T08:29:03;96346.03;;;4.81;86.64
25420;BME280;13354;48.174;11.566;2023-11-22T08:31:29;96347.03;;;4.80;85.58
25420;BME280;13354;48.174;11.566;2023-11-22T08:33:55;96350.31;;;5.01;85.22
25420;BME280;13354;48.174;11.566;2023-11-22T08:36:21;96338.44;;;4.97;84.03
25420;BME280;13354;48.174;11.566;2023-11-22T08:38:46;96341.06;;;4.97;83.53
25420;BME280;13354;48.174;11.566;2023-11-22T08:41:12;96352.78;;;4.93;83.42
25420;BME280;13354;48.174;11.566;2023-11-22T08:43:39;96353.22;;;4.98;84.61
25420;BME280;13354;48.174;11.566;2023-11-22T08:46:04;96363.00;;;5.06;84.56
25420;BME280;13354;48.174;11.566;2023-11-22T08:48:30;96366.19;;;5.09;83.82
25420;BME280;13354;48.174;11.566;2023-11-22T08:50:56;96372.16;;;4.82;83.05
25420;BME280;13354;48.174;11.566;2023-11-22T08:53:22;96378.38;;;4.72;82.46
25420;BME280;13354;48.174;11.566;2023-11-22T08:55:48;96376.00;;;4.59;83.38
25420;BME280;13354;48.174;11.566;2023-11-22T08:58:13;96373.25;;;4.60;83.88
25420;BME280;13354;48.174;11.566;2023-11-22T09:00:40;96386.50;;;4.49;84.38
25420;BME280;13354;48.174;11.566;2023-11-22T09:03:07;96382.59;;;4.34;84.68
25420;BME280;13354;48.174;11.566;2023-11-22T09:05:33;96392.16;;;4.35;85.64
25420;BME280;13354;48.174;11.566;2023-11-22T09:07:59;96393.25;;;4.32;85.45
25420;BME280;13354;48.174;11.566;2023-11-22T09:10:24;96393.47;;;4.20;85.66
25420;BME280;13354;48.174;11.566;2023-11-22T09:12:50;96386.72;;;4.17;85.98
25420;BME280;13354;48.174;11.566;2023-11-22T09:15:16;96402.56;;;4.16;86.09
25420;BME280;13354;48.174;11.566;2023-11-22T09:17:44;96410.28;;;4.07;85.54
25420;BME280;13354;48.174;11.566;2023-11-22T09:20:13;96406.06;;;4.16;85.74
25420;BME280;13354;48.174;11.566;2023-11-22T09:25:13;96425.56;;;4.43;84.09
25420;BME280;13354;48.174;11.566;2023-11-22T09:27:38;96419.56;;;4.21;84.31
25420;BME280;13354;48.174;11.566;2023-11-22T09:30:06;96423.28;;;4.09;84.82
25420;BME280;13354;48.174;11.566;2023-11-22T09:32:31;96438.59;;;4.14;85.12
25420;BME280;13354;48.174;11.566;2023-11-22T09:34:56;96434.47;;;4.21;85.32
25420;BME280;13354;48.174;11.566;2023-11-22T09:37:23;96435.72;;;4.26;85.45
25420;BME280;13354;48.174;11.566;2023-11-22T09:39:50;96441.97;;;4.45;85.11
25420;BME280;13354;48.174;11.566;2023-11-22T09:42:15;96441.81;;;4.36;84.74
25420;BME280;13354;48.174;11.566;2023-11-22T09:44:40;96437.41;;;4.27;84.00
25420;BME280;13354;48.174;11.566;2023-11-22T09:47:06;96434.63;;;4.29;83.21
25420;BME280;13354;48.174;11.566;2023-11-22T09:49:32;96436.97;;;4.42;83.24
25420;BME280;13354;48.174;11.566;2023-11-22T09:52:01;96433.66;;;4.30;83.89
25420;BME280;13354;48.174;11.566;2023-11-22T09:54:31;96432.03;;;4.48;83.55
25420;BME280;13354;48.174;11.566;2023-11-22T09:56:59;96431.47;;;4.35;82.92
25420;BME280;13354;48.174;11.566;2023-11-22T09:59:27;96435.59;;;4.38;82.96
25420;BME280;13354;48.174;11.566;2023-11-22T10:01:53;96431.44;;;4.25;83.26
25420;BME280;13354;48.174;11.566;2023-11-22T10:04:19;96439.00;;;4.19;82.59
25420;BME280;13354;48.174;11.566;2023-11-22T10:06:45;96430.72;;;4.23;82.41
25420;BME280;13354;48.174;11.566;2023-11-22T10:09:11;96436.28;;;4.20;81.86
25420;BME280;13354;48.174;11.566;2023-11-22T10:11:39;96440.84;;;4.28;81.55
25420;BME280;13354;48.174;11.566;2023-11-22T10:14:08;96434.63;;;4.29;81.26
25420;BME280;13354;48.174;11.566;2023-11-22T10:16:34;96431.44;;;4.25;80.02
25420;BME280;13354;48.174;11.566;2023-11-22T10:18:59;96436.53;;;4.17;79.80
25420;BME280;13354;48.174;11.566;2023-11-22T10:21:27;96441.22;;;4.23;79.92
25420;BME280;13354;48.174;11.566;2023-11-22T10:23:54;96431.75;;;4.32;80.19
25420;BME280;13354;48.174;11.566;2023-11-22T10:26:21;96435.06;;;4.44;80.68
25420;BME280;13354;48.174;11.566;2023-11-22T10:28:50;96437.66;;;4.34;79.99
25420;BME280;13354;48.174;11.566;2023-11-22T10:31:16;96440.47;;;4.62;79.95
25420;BME280;13354;48.174;11.566;2023-11-22T10:33:42;96441.56;;;4.49;78.40
25420;BME280;13354;48.174;11.566;2023-11-22T10:36:08;96432.19;;;4.47;78.49
25420;BME280;13354;48.174;11.566;2023-11-22T10:38:34;96441.00;;;4.46;78.35
25420;BME280;13354;48.174;11.566;2023-11-22T10:41:03;96433.28;;;4.44;76.89
25420;BME280;13354;48.174;11.566;2023-11-22T10:43:30;96431.06;;;4.40;77.52
25420;BME280;13354;48.174;11.566;2023-11-22T10:45:58;96447.34;;;4.43;78.35
25420;BME280;13354;48.174;11.566;2023-11-22T10:48:24;96451.34;;;4.47;79.20
25420;BME280;13354;48.174;11.566;2023-11-22T10:50:52;96460.75;;;4.50;79.41
25420;BME280;13354;48.174;11.566;2023-11-22T10:53:21;96463.66;;;4.47;79.56
25420;BME280;13354;48.174;11.566;2023-11-22T10:55:53;96459.94;;;4.49;79.38
25420;BME280;13354;48.174;11.566;2023-11-22T10:58:23;96451.50;;;4.46;78.21
25420;BME280;13354;48.174;11.566;2023-11-22T11:00:50;96460.56;;;4.42;77.75
25420;BME280;13354;48.174;11.566;2023-11-22T11:03:20;96464.72;;;4.44;78.56
25420;BME280;13354;48.174;11.566;2023-11-22T11:05:58;96466.13;;;4.48;78.89
25420;BME280;13354;48.174;11.566;2023-11-22T11:08:28;96472.91;;;4.51;79.06
25420;BME280;13354;48.174;11.566;2023-11-22T11:10:53;96476.59;;;4.48;79.14
25420;BME280;13354;48.174;11.566;2023-11-22T11:13:22;96475.66;;;4.49;77.62
25420;BME280;13354;48.174;11.566;2023-11-22T11:15:49;96468.81;;;4.68;77.34
25420;BME280;13354;48.174;11.566;2023-11-22T11:18:15;96464.78;;;4.73;77.43
25420;BME280;13354;48.174;11.566;2023-11-22T11:20:57;96472.09;;;4.70;76.55
25420;BME280;13354;48.174;11.566;2023-11-22T11:23:25;96488.25;;;4.65;76.25
25420;BME280;13354;48.174;11.566;2023-11-22T11:25:58;96481.91;;;4.68;76.54
25420;BME280;13354;48.174;11.566;2023-11-22T11:28:26;96482.47;;;4.81;76.93
25420;BME280;13354;48.174;11.566;2023-11-22T11:30:52;96473.22;;;4.77;76.67
25420;BME280;13354;48.174;11.566;2023-11-22T11:33:32;96466.44;;;4.74;76.48
25420;BME280;13354;48.174;11.566;2023-11-22T11:35:58;96470.88;;;4.64;74.94
25420;BME280;13354;48.174;11.566;2023-11-22T11:38:34;96466.56;;;4.63;76.73
25420;BME280;13354;48.174;11.566;2023-11-22T11:41:10;96460.50;;;4.63;77.91
25420;BME280;13354;48.174;11.566;2023-11-22T11:43:47;96460.50;;;4.63;78.07
25420;BME280;13354;48.174;11.566;2023-11-22T11:46:14;96454.56;;;4.60;78.04
25420;BME280;13354;48.174;11.566;2023-11-22T11:48:58;96454.41;;;4.62;77.45
25420;BME280;13354;48.174;11.566;2023-11-22T11:51:25;96459.09;;;4.58;77.30
25420;BME280;13354;48.174;11.566;2023-11-22T11:53:51;96453.03;;;4.58;77.33
25420;BME280;13354;48.174;11.566;2023-11-22T11:56:17;96448.31;;;4.52;77.00
25420;BME280;13354;48.174;11.566;2023-11-22T11:58:44;96444.75;;;4.53;76.81
25420;BME280;13354;48.174;11.566;2023-11-22T12:01:12;96439.78;;;4.59;77.30
25420;BME280;13354;48.174;11.566;2023-11-22T12:03:37;96445.19;;;4.68;77.16
25420;BME280;13354;48.174;11.566;2023-11-22T12:06:04;96445.19;;;4.68;76.88
25420;BME280;13354;48.174;11.566;2023-11-22T12:08:30;96449.72;;;4.66;76.53
25420;BME280;13354;48.174;11.566;2023-11-22T12:11:01;96455.38;;;4.71;75.89
25420;BME280;13354;48.174;11.566;2023-11-22T12:13:27;96459.69;;;4.72;75.19
25420;BME280;13354;48.174;11.566;2023-11-22T12:15:52;96473.91;;;4.69;75.54
25420;BME280;13354;48.174;11.566;2023-11-22T12:18:22;96474.03;;;4.68;76.00
25420;BME280;13354;48.174;11.566;2023-11-22T12:20:58;96483.81;;;4.66;76.32
25420;BME280;13354;48.174;11.566;2023-11-22T12:23:24;96490.44;;;4.60;76.67
25420;BME280;13354;48.174;11.566;2023-11-22T12:25:55;96488.94;;;4.57;76.00
25420;BME280;13354;48.174;11.566;2023-11-22T12:28:27;96492.50;;;4.56;74.79
25420;BME280;13354;48.174;11.566;2023-11-22T12:30:53;96498.56;;;4.47;75.51
25420;BME280;13354;48.174;11.566;2023-11-22T12:33:18;96501.59;;;4.52;75.30
25420;BME280;13354;48.174;11.566;2023-11-22T12:35:45;96501.47;;;4.54;75.89
25420;BME280;13354;48.174;11.566;2023-11-22T12:38:10;96498.97;;;4.52;76.30
25420;BME280;13354;48.174;11.566;2023-11-22T12:40:36;96494.84;;;4.50;76.13
25420;BME280;13354;48.174;11.566;2023-11-22T12:43:02;96492.22;;;4.50;76.88
25420;BME280;13354;48.174;11.566;2023-11-22T12:45:29;96481.31;;;4.54;77.23
25420;BME280;13354;48.174;11.566;2023-11-22T12:47:56;96476.75;;;4.56;76.60
25420;BME280;13354;48.174;11.566;2023-11-22T12:50:37;96487.53;;;4.53;76.10
25420;BME280;13354;48.174;11.566;2023-11-22T12:53:08;96486.28;;;4.48;76.04
25420;BME280;13354;48.174;11.566;2023-11-22T12:55:36;96496.09;;;4.55;75.32
25420;BME280;13354;48.174;11.566;2023-11-22T12:58:04;96494.69;;;4.51;75.93